Auburn, Illinois
Current Conditions -  °F | °C
As of 12:52 AM on Friday 19 Dec 2014 (Local Time) from KSPI Reporting Station
Overcast Overcast  
Wind Chill: -2°   Ceiling: 3900
Heat Index: -2°   Visibility: 10mi
Dew Point: -5°   Wind: 0mph
Humidity: 78%   Direction: NA
Pressure: 30.29"   Gusts: NA
Location:  39.59°N, 89.75°W
Report Text: KSPI 190652Z 00000KT 10SM OVC039 M02/M05 A3029 RMK AO2 SLP266 T10171050
Loading
Personal Weather Stations






























Interactive Weather Map New forecast layout! Learn more

10-Day Weather Forecast

Advertisements
Track Severe Weather on mobile